createdAt,value
2022-07-31T00:00:44.047Z,1.70
2022-07-31T00:03:12.410Z,2.00
2022-07-31T00:05:41.624Z,1.80
2022-07-31T00:08:07.595Z,2.00
2022-07-31T00:10:35.171Z,2.00
2022-07-31T00:13:02.746Z,2.00
2022-07-31T00:15:30.703Z,1.80
2022-07-31T00:17:58.277Z,2.13
2022-07-31T00:20:25.851Z,1.75
2022-07-31T00:22:55.231Z,1.70
2022-07-31T00:25:22.840Z,2.00
2022-07-31T00:27:50.375Z,1.70
2022-07-31T00:30:18.747Z,1.80
2022-07-31T00:32:47.090Z,1.80
2022-07-31T00:35:14.670Z,1.93
2022-07-31T00:37:42.276Z,1.73
2022-07-31T00:40:09.988Z,2.20
2022-07-31T00:42:37.552Z,2.10
2022-07-31T00:45:05.769Z,1.67
2022-07-31T00:47:32.789Z,1.97
2022-07-31T00:50:01.132Z,1.67
2022-07-31T00:52:29.110Z,1.90
2022-07-31T00:54:56.686Z,2.00
2022-07-31T00:57:24.260Z,2.00
2022-07-31T00:59:52.639Z,1.63
2022-07-31T01:02:20.214Z,1.90
2022-07-31T01:04:47.789Z,2.00
2022-07-31T01:07:15.402Z,2.00
2022-07-31T01:09:42.976Z,1.90
2022-07-31T01:12:16.762Z,2.13
2022-07-31T01:14:44.357Z,2.10
2022-07-31T01:17:11.930Z,2.33
2022-07-31T01:19:42.870Z,1.80
2022-07-31T01:22:34.190Z,2.00
2022-07-31T01:25:04.221Z,2.60
2022-07-31T01:27:50.126Z,2.43
2022-07-31T01:30:17.470Z,2.37
2022-07-31T01:32:45.043Z,2.20
2022-07-31T01:35:13.011Z,2.50
2022-07-31T01:37:40.619Z,2.10
2022-07-31T01:40:10.943Z,2.40
2022-07-31T01:42:38.547Z,2.20
2022-07-31T01:45:06.282Z,2.10
2022-07-31T01:47:33.846Z,2.37
2022-07-31T01:50:01.466Z,2.20
2022-07-31T01:52:29.041Z,2.53
2022-07-31T01:54:57.384Z,2.30
2022-07-31T01:57:24.978Z,2.63
2022-07-31T01:59:55.870Z,2.63
2022-07-31T02:02:23.443Z,2.53
2022-07-31T02:04:51.063Z,2.60
2022-07-31T02:07:18.650Z,2.97
2022-07-31T02:09:53.712Z,2.50
2022-07-31T02:12:14.606Z,2.70
2022-07-31T02:14:42.178Z,2.30
2022-07-31T02:17:10.519Z,2.30
2022-07-31T02:19:39.117Z,2.50
2022-07-31T02:22:06.865Z,2.47
2022-07-31T02:24:34.276Z,2.70
2022-07-31T02:27:01.889Z,2.30
2022-07-31T02:29:29.462Z,1.87
2022-07-31T02:32:02.857Z,2.10
2022-07-31T02:34:29.157Z,2.22
2022-07-31T02:36:52.983Z,2.60
2022-07-31T02:39:21.325Z,2.13
2022-07-31T02:41:48.908Z,2.70
2022-07-31T02:44:17.261Z,2.27
2022-07-31T02:46:44.834Z,2.20
2022-07-31T02:49:15.433Z,2.40
2022-07-31T02:51:43.744Z,2.73
2022-07-31T02:54:11.321Z,2.13
2022-07-31T02:56:39.680Z,2.40
2022-07-31T02:59:07.255Z,2.33
2022-07-31T03:01:35.599Z,2.42
2022-07-31T03:04:03.230Z,2.20
2022-07-31T03:06:30.804Z,2.50
2022-07-31T03:08:58.378Z,2.40
2022-07-31T03:11:25.981Z,2.10
2022-07-31T03:13:54.334Z,2.17
2022-07-31T03:16:21.888Z,2.37
2022-07-31T03:18:50.468Z,2.17
2022-07-31T03:21:18.041Z,2.70
2022-07-31T03:23:45.615Z,2.23
2022-07-31T03:26:13.978Z,2.77
2022-07-31T03:28:41.541Z,2.67
2022-07-31T03:31:09.125Z,2.50
2022-07-31T03:33:38.395Z,2.50
2022-07-31T03:36:05.968Z,2.63
2022-07-31T03:38:41.529Z,2.40
2022-07-31T03:41:01.913Z,2.87
2022-07-31T03:43:30.265Z,3.33
2022-07-31T03:45:57.919Z,2.80
2022-07-31T03:48:25.551Z,2.97
2022-07-31T03:50:53.125Z,2.70
2022-07-31T03:53:20.699Z,3.07
2022-07-31T03:55:48.294Z,2.70
2022-07-31T03:58:16.636Z,2.60
2022-07-31T04:00:44.210Z,2.23
2022-07-31T04:03:11.814Z,2.63
2022-07-31T04:05:39.388Z,2.67
2022-07-31T04:08:06.961Z,2.50
2022-07-31T04:10:34.556Z,2.83
2022-07-31T04:13:02.130Z,2.90
2022-07-31T04:15:30.473Z,2.73
2022-07-31T04:17:59.050Z,2.80
2022-07-31T04:20:26.634Z,2.50
2022-07-31T04:22:55.818Z,2.75
2022-07-31T04:25:22.865Z,2.50
2022-07-31T04:27:50.441Z,3.00
2022-07-31T04:30:18.783Z,2.87
2022-07-31T04:32:46.379Z,3.30
2022-07-31T04:35:14.717Z,2.63
2022-07-31T04:37:48.001Z,2.73
2022-07-31T04:40:10.073Z,2.70
2022-07-31T04:42:37.637Z,3.03
2022-07-31T04:45:06.078Z,2.57
2022-07-31T04:47:33.692Z,2.90
2022-07-31T04:50:02.033Z,2.97
2022-07-31T04:52:29.608Z,3.27
2022-07-31T04:54:57.557Z,3.50
2022-07-31T04:57:25.292Z,4.07
2022-07-31T04:59:58.642Z,3.87
2022-07-31T05:02:21.233Z,3.00
2022-07-31T05:04:56.307Z,3.10
2022-07-31T05:07:16.384Z,3.27
2022-07-31T05:09:43.985Z,2.73
2022-07-31T05:12:11.559Z,3.50
2022-07-31T05:14:39.134Z,3.23
2022-07-31T05:17:07.016Z,3.27
2022-07-31T05:19:34.588Z,2.80
2022-07-31T05:22:02.790Z,2.90
2022-07-31T05:24:33.896Z,2.70
2022-07-31T05:26:57.350Z,2.77
2022-07-31T05:29:24.923Z,2.70
2022-07-31T05:31:59.369Z,2.93
2022-07-31T05:34:20.121Z,3.20
2022-07-31T05:36:47.695Z,3.03
2022-07-31T05:39:15.321Z,2.93
2022-07-31T05:41:42.897Z,3.42
2022-07-31T05:44:10.476Z,3.10
2022-07-31T05:46:38.089Z,3.07
2022-07-31T05:49:05.719Z,3.67
2022-07-31T05:51:33.231Z,3.40
2022-07-31T05:54:00.842Z,3.10
2022-07-31T05:56:28.415Z,3.07
2022-07-31T05:58:56.817Z,2.90
2022-07-31T06:01:24.392Z,3.30
2022-07-31T06:03:52.678Z,3.50
2022-07-31T06:06:19.509Z,3.13
2022-07-31T06:08:47.124Z,3.43
2022-07-31T06:11:15.466Z,2.90
2022-07-31T06:13:43.043Z,3.13
2022-07-31T06:16:13.676Z,2.60
2022-07-31T06:18:41.260Z,2.40
2022-07-31T06:21:09.603Z,2.60
2022-07-31T06:23:37.291Z,2.80
2022-07-31T06:26:04.931Z,2.47
2022-07-31T06:28:48.149Z,2.37
2022-07-31T06:30:59.978Z,2.27
2022-07-31T06:33:36.999Z,2.30
2022-07-31T06:35:55.905Z,3.00
2022-07-31T06:38:24.277Z,3.10
2022-07-31T06:40:51.859Z,3.03
2022-07-31T06:43:20.192Z,2.87
2022-07-31T06:45:52.518Z,3.10
2022-07-31T06:48:15.379Z,2.83
2022-07-31T06:50:42.954Z,3.27
2022-07-31T06:53:11.465Z,4.80
2022-07-31T06:55:44.456Z,5.07
2022-07-31T06:58:06.610Z,6.72
2022-07-31T07:00:34.985Z,6.67
2022-07-31T07:03:03.324Z,5.57
2022-07-31T07:05:30.909Z,3.80
2022-07-31T07:07:58.523Z,3.90
2022-07-31T07:10:26.099Z,3.63
2022-07-31T07:12:54.188Z,3.20
2022-07-31T07:15:21.305Z,2.80
2022-07-31T07:17:48.889Z,2.67
2022-07-31T07:20:16.452Z,2.50
2022-07-31T07:22:44.066Z,2.30
2022-07-31T07:25:11.641Z,2.40
2022-07-31T07:27:39.214Z,2.20
2022-07-31T07:30:07.064Z,2.10
2022-07-31T07:32:34.639Z,2.30
2022-07-31T07:35:02.213Z,2.40
2022-07-31T07:37:29.837Z,2.00
2022-07-31T07:39:57.409Z,2.00
2022-07-31T07:42:24.984Z,2.10
2022-07-31T07:44:52.597Z,2.23
2022-07-31T07:47:20.172Z,2.00
2022-07-31T07:49:47.756Z,2.20
2022-07-31T07:52:16.153Z,1.90
2022-07-31T07:54:43.387Z,1.93
2022-07-31T07:57:10.972Z,1.63
2022-07-31T07:59:38.595Z,1.73
2022-07-31T08:02:06.526Z,1.47
2022-07-31T08:04:33.752Z,1.60
2022-07-31T08:07:02.616Z,1.70
2022-07-31T08:09:28.939Z,1.60
2022-07-31T08:11:56.523Z,1.43
2022-07-31T08:14:24.166Z,1.57
2022-07-31T08:16:51.756Z,1.50
2022-07-31T08:19:19.330Z,1.00
2022-07-31T08:21:47.988Z,1.58
2022-07-31T08:24:15.573Z,1.30
2022-07-31T08:27:02.101Z,1.23
2022-07-31T08:29:29.678Z,1.33
2022-07-31T08:31:57.255Z,1.23
2022-07-31T08:34:30.910Z,1.30
2022-07-31T08:36:52.817Z,1.13
2022-07-31T08:39:21.295Z,1.20
2022-07-31T08:41:48.783Z,1.33
2022-07-31T08:44:17.106Z,1.30
2022-07-31T08:46:44.689Z,1.43
2022-07-31T08:49:12.988Z,1.33
2022-07-31T08:51:51.676Z,1.40
2022-07-31T08:54:07.483Z,1.20
2022-07-31T08:56:35.862Z,1.00
2022-07-31T08:59:07.433Z,1.13
2022-07-31T09:01:35.089Z,1.50
2022-07-31T09:04:02.628Z,1.07
2022-07-31T09:06:30.970Z,1.20
2022-07-31T09:08:58.544Z,1.10
2022-07-31T09:11:26.424Z,1.10
2022-07-31T09:14:02.673Z,1.03
2022-07-31T09:16:30.493Z,1.07
2022-07-31T09:19:00.850Z,1.10
2022-07-31T09:21:28.413Z,1.13
2022-07-31T09:23:55.988Z,1.10
2022-07-31T09:26:23.611Z,1.10
2022-07-31T09:28:51.190Z,1.23
2022-07-31T09:31:18.769Z,1.30
2022-07-31T09:33:46.398Z,1.00
2022-07-31T09:36:13.980Z,1.20
2022-07-31T09:38:41.561Z,1.20
2022-07-31T09:41:56.258Z,1.33
2022-07-31T09:43:49.395Z,1.10
2022-07-31T09:46:11.008Z,1.10
2022-07-31T09:48:39.399Z,1.37
2022-07-31T09:51:06.963Z,1.50
2022-07-31T09:53:43.792Z,1.17
2022-07-31T09:56:11.584Z,1.20
2022-07-31T09:58:39.148Z,1.40
2022-07-31T10:01:07.549Z,1.20
2022-07-31T10:03:35.173Z,1.30
2022-07-31T10:06:02.757Z,1.43
2022-07-31T10:08:30.324Z,2.97
2022-07-31T10:10:57.954Z,1.27
2022-07-31T10:13:25.528Z,1.20
2022-07-31T10:15:53.890Z,1.93
2022-07-31T10:18:35.693Z,1.40
2022-07-31T10:20:50.734Z,1.23
2022-07-31T10:23:18.319Z,1.40
2022-07-31T10:25:53.328Z,1.30
2022-07-31T10:28:14.299Z,1.10
2022-07-31T10:30:41.895Z,1.27
2022-07-31T10:33:40.735Z,1.20
2022-07-31T10:35:37.128Z,1.60
2022-07-31T10:38:04.714Z,1.40
2022-07-31T10:40:51.088Z,1.20
2022-07-31T10:43:27.323Z,1.30
2022-07-31T10:45:54.918Z,0.97
2022-07-31T10:48:23.289Z,1.40
2022-07-31T10:50:50.865Z,1.10
2022-07-31T10:53:19.227Z,1.67
2022-07-31T10:55:47.623Z,1.60
2022-07-31T10:58:15.962Z,1.33
2022-07-31T11:00:43.625Z,1.30
2022-07-31T11:03:17.150Z,1.40
2022-07-31T11:06:02.189Z,1.30
2022-07-31T11:08:25.069Z,1.30
2022-07-31T11:10:53.412Z,1.30
2022-07-31T11:13:20.994Z,1.23
2022-07-31T11:15:48.608Z,1.50
2022-07-31T11:18:24.954Z,1.40
2022-07-31T11:20:43.756Z,1.30
2022-07-31T11:23:11.360Z,1.50
2022-07-31T11:25:38.937Z,1.17
2022-07-31T11:28:21.563Z,1.30
2022-07-31T11:30:49.137Z,1.60
2022-07-31T11:33:16.722Z,1.47
2022-07-31T11:35:44.326Z,1.47
2022-07-31T11:38:11.899Z,1.30
2022-07-31T11:40:39.473Z,1.10
2022-07-31T11:45:35.419Z,1.40
2022-07-31T11:48:10.075Z,1.30
2022-07-31T11:50:31.181Z,1.40
2022-07-31T11:53:04.660Z,1.63
2022-07-31T11:55:32.214Z,1.50
2022-07-31T11:57:59.818Z,1.57
2022-07-31T12:00:30.107Z,1.60
2022-07-31T12:02:55.039Z,1.40
2022-07-31T12:05:37.935Z,1.63
2022-07-31T12:07:50.931Z,1.47
2022-07-31T12:10:18.526Z,2.40
2022-07-31T12:12:46.917Z,1.77
2022-07-31T12:15:14.551Z,1.50
2022-07-31T12:17:42.124Z,1.80
2022-07-31T12:20:11.550Z,1.40
2022-07-31T12:22:39.123Z,1.73
2022-07-31T12:25:09.063Z,1.47
2022-07-31T12:27:35.295Z,1.67
2022-07-31T12:30:14.725Z,1.60
2022-07-31T12:32:42.338Z,1.90
2022-07-31T12:35:09.912Z,1.60
2022-07-31T12:37:43.415Z,1.60
2022-07-31T12:40:11.198Z,1.67
2022-07-31T12:42:41.759Z,1.90
2022-07-31T12:45:19.460Z,1.67
2022-07-31T12:47:34.007Z,2.00
2022-07-31T12:50:01.590Z,1.70
2022-07-31T12:52:29.932Z,1.50
2022-07-31T12:54:57.564Z,1.77
2022-07-31T12:57:25.129Z,1.77
2022-07-31T12:59:52.704Z,1.47
2022-07-31T13:02:20.632Z,1.90
2022-07-31T13:04:48.206Z,2.03
2022-07-31T13:07:15.789Z,1.80
2022-07-31T13:09:43.669Z,2.23
2022-07-31T13:12:11.254Z,1.53
2022-07-31T13:14:39.634Z,2.00
2022-07-31T13:17:07.588Z,1.60
2022-07-31T13:19:34.784Z,2.23
2022-07-31T13:22:02.359Z,2.00
2022-07-31T13:24:29.981Z,2.07
2022-07-31T13:26:58.333Z,2.30
2022-07-31T13:29:25.896Z,2.03
2022-07-31T13:31:53.866Z,1.93
2022-07-31T13:34:21.448Z,1.83
2022-07-31T13:36:49.931Z,2.03
2022-07-31T13:39:18.297Z,2.10
2022-07-31T13:41:46.632Z,2.00
2022-07-31T13:44:14.206Z,2.23
2022-07-31T13:46:42.175Z,2.15
2022-07-31T13:49:09.795Z,2.20
2022-07-31T13:51:38.116Z,2.50
2022-07-31T13:54:05.724Z,2.00
2022-07-31T13:56:39.069Z,2.10
2022-07-31T13:59:00.883Z,2.10
2022-07-31T14:02:03.780Z,2.07
2022-07-31T14:03:57.024Z,2.13
2022-07-31T14:06:24.600Z,2.40
2022-07-31T14:08:52.223Z,2.28
2022-07-31T14:11:19.807Z,2.10
2022-07-31T14:13:47.381Z,2.10
2022-07-31T14:16:14.995Z,1.93
2022-07-31T14:18:42.578Z,2.33
2022-07-31T14:21:10.154Z,2.20
2022-07-31T14:23:40.667Z,2.20
2022-07-31T14:26:06.315Z,2.30
2022-07-31T14:28:34.656Z,2.33
2022-07-31T14:31:02.279Z,2.23
2022-07-31T14:33:29.855Z,2.10
2022-07-31T14:35:57.428Z,2.20
2022-07-31T14:38:27.630Z,2.50
2022-07-31T14:40:53.386Z,2.20
2022-07-31T14:43:20.958Z,2.30
2022-07-31T14:45:51.848Z,2.23
2022-07-31T14:48:16.301Z,2.00
2022-07-31T14:50:43.723Z,2.00
2022-07-31T14:53:12.319Z,1.83
2022-07-31T14:55:39.893Z,2.07
2022-07-31T14:58:07.477Z,1.80
2022-07-31T15:00:35.096Z,1.77
2022-07-31T15:03:02.663Z,2.13
2022-07-31T15:06:39.797Z,2.23
2022-07-31T15:07:58.886Z,2.17
2022-07-31T15:10:26.460Z,1.90
2022-07-31T15:12:54.043Z,1.90
2022-07-31T15:15:22.537Z,2.07
2022-07-31T15:17:50.870Z,1.97
2022-07-31T15:20:18.458Z,2.50
2022-07-31T15:22:47.095Z,2.22
2022-07-31T15:25:14.668Z,2.17
2022-07-31T15:27:42.236Z,2.17
2022-07-31T15:30:09.996Z,1.92
2022-07-31T15:32:37.589Z,2.00
2022-07-31T15:35:08.189Z,2.35
2022-07-31T15:37:36.165Z,2.40
2022-07-31T15:40:06.484Z,1.93
2022-07-31T15:42:34.074Z,1.90
2022-07-31T15:45:02.451Z,2.27
2022-07-31T15:47:30.787Z,2.27
2022-07-31T15:49:58.370Z,2.00
2022-07-31T15:52:26.103Z,2.30
2022-07-31T15:54:53.570Z,2.00
2022-07-31T15:57:21.192Z,2.07
2022-07-31T15:59:49.690Z,2.20
2022-07-31T16:02:17.132Z,2.20
2022-07-31T16:04:52.352Z,2.00
2022-07-31T16:08:31.904Z,1.90
2022-07-31T16:10:03.867Z,2.20
2022-07-31T16:12:08.374Z,2.30
2022-07-31T16:14:36.756Z,1.73
2022-07-31T16:17:05.665Z,2.00
2022-07-31T16:19:34.513Z,2.10
2022-07-31T16:22:00.659Z,1.83
2022-07-31T16:24:29.000Z,2.23
2022-07-31T16:26:56.574Z,2.30
2022-07-31T16:30:01.153Z,2.00
2022-07-31T16:31:51.771Z,2.20
2022-07-31T16:34:19.356Z,1.70
2022-07-31T16:36:47.011Z,2.10
2022-07-31T16:39:20.425Z,2.20
2022-07-31T16:41:54.734Z,2.17
2022-07-31T16:44:10.547Z,2.50
2022-07-31T16:46:38.120Z,2.03
2022-07-31T16:49:28.390Z,2.00
2022-07-31T16:51:33.317Z,2.27
2022-07-31T16:54:12.727Z,2.27
2022-07-31T16:56:28.462Z,1.80
2022-07-31T16:58:56.076Z,2.17
2022-07-31T17:01:58.785Z,2.27
2022-07-31T17:04:01.196Z,2.30
2022-07-31T17:06:34.291Z,1.90
2022-07-31T17:08:47.185Z,2.50
2022-07-31T17:11:14.758Z,1.93
2022-07-31T17:13:42.390Z,2.30
2022-07-31T17:16:09.955Z,1.80
2022-07-31T17:18:37.541Z,2.07
2022-07-31T17:21:05.151Z,1.90
2022-07-31T17:23:43.958Z,1.90
2022-07-31T17:26:01.091Z,1.80
2022-07-31T17:28:29.735Z,1.70
2022-07-31T17:30:57.300Z,2.00
2022-07-31T17:33:58.994Z,1.87
2022-07-31T17:35:53.255Z,1.90
2022-07-31T17:38:20.830Z,2.00
2022-07-31T17:40:49.158Z,1.97
2022-07-31T17:43:16.783Z,1.80
2022-07-31T17:45:59.798Z,2.17
2022-07-31T17:48:11.918Z,1.53
2022-07-31T17:50:39.820Z,1.90
2022-07-31T17:53:07.392Z,2.22
2022-07-31T17:55:35.737Z,2.20
2022-07-31T17:58:03.341Z,2.17
2022-07-31T18:00:32.487Z,1.47
2022-07-31T18:02:59.271Z,1.83
2022-07-31T18:05:27.651Z,1.53
2022-07-31T18:07:55.989Z,1.37
2022-07-31T18:10:32.685Z,1.40
2022-07-31T18:12:57.002Z,1.30
2022-07-31T18:15:18.769Z,1.40
2022-07-31T18:17:46.353Z,1.40
2022-07-31T18:20:14.922Z,1.30
2022-07-31T18:22:49.220Z,1.70
2022-07-31T18:25:10.094Z,1.33
2022-07-31T18:27:38.460Z,1.30
2022-07-31T18:30:07.032Z,1.50
2022-07-31T18:32:35.373Z,1.30
2022-07-31T18:35:03.297Z,1.33
2022-07-31T18:37:30.880Z,1.30
2022-07-31T18:39:58.474Z,2.00
2022-07-31T18:42:26.095Z,1.57
2022-07-31T18:44:53.669Z,1.87
2022-07-31T18:47:21.242Z,1.93
2022-07-31T18:50:58.100Z,1.50
2022-07-31T18:52:16.449Z,1.80
2022-07-31T18:54:44.278Z,1.30
2022-07-31T18:57:11.998Z,1.50
2022-07-31T18:59:39.571Z,1.30
2022-07-31T19:02:07.694Z,1.67
2022-07-31T19:04:34.890Z,1.30
2022-07-31T19:07:02.549Z,1.13
2022-07-31T19:09:30.095Z,1.27
2022-07-31T19:12:06.060Z,1.40
2022-07-31T19:14:26.033Z,1.03
2022-07-31T19:16:53.606Z,1.43
2022-07-31T19:19:21.232Z,1.40
2022-07-31T19:21:48.814Z,1.37
2022-07-31T19:24:16.432Z,1.20
2022-07-31T19:26:44.075Z,1.07
2022-07-31T19:29:12.467Z,1.10
2022-07-31T19:31:40.011Z,1.00
2022-07-31T19:34:08.382Z,0.97
2022-07-31T19:36:36.718Z,1.03
2022-07-31T19:39:04.292Z,1.20
2022-07-31T19:41:31.916Z,0.70
2022-07-31T19:43:59.485Z,1.10
2022-07-31T19:46:27.269Z,0.80
2022-07-31T19:48:55.381Z,0.80
2022-07-31T19:51:23.920Z,0.70
2022-07-31T19:53:51.499Z,0.70
2022-07-31T19:56:20.973Z,0.73
2022-07-31T19:58:46.717Z,0.90
2022-07-31T20:01:14.296Z,1.10
2022-07-31T20:03:43.856Z,0.98
2022-07-31T20:06:11.419Z,0.80
2022-07-31T20:08:39.053Z,0.87
2022-07-31T20:11:06.665Z,1.20
2022-07-31T20:13:34.239Z,0.70
2022-07-31T20:16:02.585Z,1.37
2022-07-31T20:18:30.205Z,1.73
2022-07-31T20:20:57.771Z,1.80
2022-07-31T20:23:25.377Z,1.63
2022-07-31T20:25:53.969Z,1.20
2022-07-31T20:28:21.535Z,1.27
2022-07-31T20:30:49.878Z,1.33
2022-07-31T20:33:17.500Z,0.90
2022-07-31T20:35:47.438Z,1.00
2022-07-31T20:38:15.970Z,0.90
2022-07-31T20:40:40.311Z,1.30
2022-07-31T20:43:07.837Z,1.00
2022-07-31T20:45:35.401Z,0.90
2022-07-31T20:48:03.015Z,0.77
2022-07-31T20:50:30.598Z,1.00
2022-07-31T20:52:58.940Z,0.93
2022-07-31T20:55:26.551Z,1.00
2022-07-31T20:57:54.135Z,0.93
2022-07-31T21:00:21.877Z,0.70
2022-07-31T21:02:50.244Z,0.90
2022-07-31T21:05:27.127Z,1.10
2022-07-31T21:07:46.161Z,0.80
2022-07-31T21:10:13.775Z,1.00
2022-07-31T21:12:41.348Z,0.90
2022-07-31T21:15:40.685Z,1.10
2022-07-31T21:17:37.620Z,0.97
2022-07-31T21:20:05.212Z,0.80
2022-07-31T21:22:32.838Z,0.93
2022-07-31T21:25:00.459Z,0.90
2022-07-31T21:27:28.034Z,1.00
2022-07-31T21:29:57.025Z,0.83
2022-07-31T21:32:24.413Z,0.93
2022-07-31T21:34:52.067Z,1.20
2022-07-31T21:37:19.641Z,0.90
2022-07-31T21:39:47.589Z,1.35
2022-07-31T21:42:15.372Z,0.80
2022-07-31T21:44:42.944Z,0.90
2022-07-31T21:47:14.436Z,0.90
2022-07-31T21:49:42.011Z,0.90
2022-07-31T21:52:09.713Z,0.90
2022-07-31T21:54:37.658Z,1.00
2022-07-31T21:57:05.221Z,1.00
2022-07-31T21:59:32.787Z,1.10
2022-07-31T22:02:01.925Z,1.20
2022-07-31T22:04:34.670Z,0.80
2022-07-31T22:07:14.202Z,0.87
2022-07-31T22:09:41.774Z,1.10
2022-07-31T22:12:10.531Z,1.10
2022-07-31T22:14:37.739Z,1.03
2022-07-31T22:17:05.313Z,0.90
2022-07-31T22:19:32.898Z,1.30
2022-07-31T22:22:00.540Z,1.03
2022-07-31T22:24:28.184Z,1.17
2022-07-31T22:27:16.732Z,0.93
2022-07-31T22:29:41.656Z,1.00
2022-07-31T22:32:09.399Z,1.13
2022-07-31T22:34:38.254Z,0.90
2022-07-31T22:37:05.811Z,1.03
2022-07-31T22:39:34.153Z,1.10
2022-07-31T22:42:01.930Z,1.20
2022-07-31T22:44:30.112Z,1.20
2022-07-31T22:46:57.686Z,1.00
2022-07-31T22:49:25.320Z,0.90
2022-07-31T22:51:52.884Z,1.00
2022-07-31T22:54:20.424Z,1.00
2022-07-31T22:56:49.248Z,0.90
2022-07-31T22:59:16.823Z,1.27
2022-07-31T23:01:45.165Z,1.13
2022-07-31T23:04:12.759Z,1.00
2022-07-31T23:06:41.101Z,1.00
2022-07-31T23:09:08.675Z,0.83
2022-07-31T23:11:36.279Z,1.10
2022-07-31T23:14:03.852Z,0.80
2022-07-31T23:16:31.436Z,0.90
2022-07-31T23:18:59.049Z,0.90
2022-07-31T23:21:26.624Z,1.10
2022-07-31T23:23:54.203Z,1.07
2022-07-31T23:26:21.786Z,1.00
2022-07-31T23:28:49.360Z,1.00
2022-07-31T23:31:16.954Z,1.00
2022-07-31T23:33:45.506Z,0.93
2022-07-31T23:36:13.077Z,0.90
2022-07-31T23:38:41.536Z,1.10
2022-07-31T23:41:09.139Z,0.90
2022-07-31T23:43:36.722Z,1.05
2022-07-31T23:46:04.307Z,1.00
2022-07-31T23:48:31.901Z,1.00
2022-07-31T23:51:00.253Z,0.90
2022-07-31T23:53:27.824Z,0.80
2022-07-31T23:55:56.204Z,1.00
2022-07-31T23:58:24.546Z,1.00
